EZY63DK EGKK-EDDH
Flight info
| Callsign | EZY63DK |
|---|---|
| Flight time | 1h 8m |
| Altitude | 37000 |
| Route | FRANE M604 PAAVO Q295 SOMVA DCT MAVAS DCT PARYD DCT GASTU DCT OSTOR T904 RIBSO |
| Aircraft | A319/M-SDE3FGHIRWY/LB1 |
Departure
| Time | 2026-05-06 08:52 |
|---|---|
| Airport | London Gatwick Airport (EGKK) |
Arrival
| Time | 2026-05-06 10:00 |
|---|---|
| Airport | Hamburg Helmut Schmidt Airport (EDDH) |
| Time | Latitude | Longitude | Altitude | Speed | Heading |
|---|---|---|---|---|---|
| 2026-05-06 08:18 | 51.15783 | -0.17890 | 205 ft | 0 kts | 346° |
| 2026-05-06 08:37 | 51.15770 | -0.17885 | 215 ft | 4 kts | 345° |
| 2026-05-06 08:37 | 51.15745 | -0.17872 | 213 ft | 4 kts | 336° |
| 2026-05-06 08:37 | 51.15723 | -0.17852 | 205 ft | 4 kts | 302° |
| 2026-05-06 08:38 | 51.15718 | -0.17832 | 213 ft | 1 kts | 258° |
| 2026-05-06 08:40 | 51.15716 | -0.17845 | 212 ft | 2 kts | 258° |
| 2026-05-06 08:40 | 51.15712 | -0.17877 | 208 ft | 4 kts | 258° |
| 2026-05-06 08:41 | 51.15705 | -0.17924 | 215 ft | 5 kts | 258° |
| 2026-05-06 08:41 | 51.15697 | -0.17984 | 208 ft | 6 kts | 258° |
| 2026-05-06 08:41 | 51.15687 | -0.18056 | 215 ft | 7 kts | 257° |
| 2026-05-06 08:41 | 51.15676 | -0.18141 | 214 ft | 8 kts | 258° |
| 2026-05-06 08:42 | 51.15652 | -0.18227 | 209 ft | 9 kts | 219° |
| 2026-05-06 08:42 | 51.15592 | -0.18264 | 207 ft | 10 kts | 210° |
| 2026-05-06 08:42 | 51.15532 | -0.18321 | 207 ft | 10 kts | 199° |
| 2026-05-06 08:42 | 51.15459 | -0.18305 | 205 ft | 11 kts | 167° |
| 2026-05-06 08:43 | 51.15382 | -0.18279 | 205 ft | 12 kts | 168° |
| 2026-05-06 08:43 | 51.15300 | -0.18251 | 213 ft | 12 kts | 168° |
| 2026-05-06 08:43 | 51.15234 | -0.18228 | 214 ft | 8 kts | 168° |
| 2026-05-06 08:43 | 51.15191 | -0.18271 | 207 ft | 8 kts | 257° |
| 2026-05-06 08:44 | 51.15182 | -0.18366 | 205 ft | 9 kts | 257° |
| 2026-05-06 08:44 | 51.15166 | -0.18475 | 211 ft | 11 kts | 257° |
| 2026-05-06 08:44 | 51.15150 | -0.18595 | 205 ft | 12 kts | 258° |
| 2026-05-06 08:44 | 51.15132 | -0.18727 | 205 ft | 13 kts | 258° |
| 2026-05-06 08:45 | 51.15113 | -0.18872 | 213 ft | 14 kts | 258° |
| 2026-05-06 08:45 | 51.15092 | -0.19023 | 205 ft | 14 kts | 258° |
| 2026-05-06 08:45 | 51.15071 | -0.19176 | 210 ft | 15 kts | 257° |
| 2026-05-06 08:45 | 51.15048 | -0.19346 | 205 ft | 16 kts | 257° |
| 2026-05-06 08:46 | 51.15023 | -0.19524 | 208 ft | 17 kts | 257° |
| 2026-05-06 08:46 | 51.14997 | -0.19711 | 209 ft | 18 kts | 257° |
| 2026-05-06 08:46 | 51.14970 | -0.19904 | 211 ft | 19 kts | 257° |
| 2026-05-06 08:46 | 51.14942 | -0.20115 | 216 ft | 20 kts | 258° |
| 2026-05-06 08:47 | 51.14911 | -0.20337 | 214 ft | 21 kts | 257° |
| 2026-05-06 08:47 | 51.14879 | -0.20564 | 208 ft | 21 kts | 257° |
| 2026-05-06 08:47 | 51.14849 | -0.20782 | 205 ft | 19 kts | 257° |
| 2026-05-06 08:47 | 51.14819 | -0.20996 | 207 ft | 20 kts | 257° |
| 2026-05-06 08:48 | 51.14795 | -0.21155 | 214 ft | 12 kts | 247° |
| 2026-05-06 08:48 | 51.14769 | -0.21292 | 214 ft | 13 kts | 257° |
| 2026-05-06 08:48 | 51.14745 | -0.21395 | 208 ft | 9 kts | 224° |
| 2026-05-06 08:48 | 51.14685 | -0.21393 | 205 ft | 10 kts | 153° |
| 2026-05-06 08:49 | 51.14635 | -0.21335 | 208 ft | 8 kts | 161° |
| 2026-05-06 08:49 | 51.14613 | -0.21329 | 207 ft | 0 kts | 170° |
| 2026-05-06 08:50 | 51.14611 | -0.21328 | 205 ft | 1 kts | 170° |
| 2026-05-06 08:50 | 51.14598 | -0.21325 | 205 ft | 3 kts | 169° |
| 2026-05-06 08:50 | 51.14566 | -0.21309 | 210 ft | 7 kts | 154° |
| 2026-05-06 08:50 | 51.14526 | -0.21243 | 209 ft | 9 kts | 118° |
| 2026-05-06 08:51 | 51.14530 | -0.21101 | 210 ft | 16 kts | 78° |
| 2026-05-06 08:51 | 51.14574 | -0.20777 | 211 ft | 73 kts | 77° |
| 2026-05-06 08:51 | 51.14744 | -0.19580 | 211 ft | 144 kts | 76° |
| 2026-05-06 08:51 | 51.14949 | -0.17842 | 663 ft | 160 kts | 75° |
| 2026-05-06 08:52 | 51.15159 | -0.16104 | 1521 ft | 161 kts | 73° |
| 2026-05-06 08:52 | 51.15416 | -0.14299 | 2103 ft | 180 kts | 72° |
| 2026-05-06 08:52 | 51.15721 | -0.12233 | 2572 ft | 204 kts | 72° |
| 2026-05-06 08:52 | 51.16062 | -0.09890 | 3080 ft | 229 kts | 73° |
| 2026-05-06 08:53 | 51.16432 | -0.07289 | 3792 ft | 249 kts | 73° |
| 2026-05-06 08:53 | 51.16822 | -0.04542 | 4805 ft | 257 kts | 71° |
| 2026-05-06 08:53 | 51.17629 | -0.02021 | 5753 ft | 258 kts | 46° |
| 2026-05-06 08:53 | 51.18841 | 0.00068 | 6741 ft | 262 kts | 41° |
| 2026-05-06 08:54 | 51.19199 | 0.00653 | 7006 ft | 265 kts | 41° |
| 2026-05-06 08:54 | 51.20507 | 0.02757 | 7983 ft | 270 kts | 41° |
| 2026-05-06 08:54 | 51.21859 | 0.04881 | 8977 ft | 275 kts | 41° |
| 2026-05-06 08:54 | 51.23203 | 0.06953 | 9937 ft | 280 kts | 41° |
| 2026-05-06 08:55 | 51.24659 | 0.09156 | 10469 ft | 300 kts | 41° |
| 2026-05-06 08:55 | 51.26232 | 0.11516 | 10999 ft | 317 kts | 41° |
| 2026-05-06 08:55 | 51.27862 | 0.13953 | 11809 ft | 324 kts | 41° |
| 2026-05-06 08:55 | 51.29506 | 0.16402 | 12600 ft | 331 kts | 41° |
| 2026-05-06 08:56 | 51.31206 | 0.18931 | 13117 ft | 336 kts | 41° |
| 2026-05-06 08:56 | 51.32929 | 0.21490 | 13979 ft | 340 kts | 41° |
| 2026-05-06 08:56 | 51.34673 | 0.24081 | 14729 ft | 345 kts | 41° |
| 2026-05-06 08:56 | 51.36441 | 0.26714 | 15471 ft | 349 kts | 41° |
| 2026-05-06 08:57 | 51.38231 | 0.29385 | 16203 ft | 354 kts | 41° |
| 2026-05-06 08:57 | 51.40046 | 0.32098 | 16798 ft | 360 kts | 41° |
| 2026-05-06 08:57 | 51.41879 | 0.34842 | 16959 ft | 361 kts | 41° |
| 2026-05-06 08:57 | 51.43714 | 0.37592 | 16992 ft | 361 kts | 41° |
| 2026-05-06 08:58 | 51.45541 | 0.40334 | 16976 ft | 361 kts | 41° |
| 2026-05-06 08:58 | 51.47374 | 0.43088 | 16981 ft | 362 kts | 41° |
| 2026-05-06 08:58 | 51.49225 | 0.45867 | 17624 ft | 366 kts | 41° |
| 2026-05-06 08:58 | 51.51053 | 0.48613 | 18366 ft | 369 kts | 41° |
| 2026-05-06 08:59 | 51.52913 | 0.51407 | 19000 ft | 373 kts | 41° |
| 2026-05-06 08:59 | 51.54837 | 0.54264 | 19626 ft | 378 kts | 39° |
| 2026-05-06 08:59 | 51.57010 | 0.56662 | 20237 ft | 381 kts | 30° |
| 2026-05-06 08:59 | 51.59285 | 0.58884 | 20878 ft | 385 kts | 30° |
| 2026-05-06 09:00 | 51.61593 | 0.61133 | 21502 ft | 390 kts | 30° |
| 2026-05-06 09:00 | 51.63924 | 0.63406 | 22129 ft | 394 kts | 30° |
| 2026-05-06 09:00 | 51.66286 | 0.65712 | 22751 ft | 398 kts | 30° |
| 2026-05-06 09:00 | 51.68631 | 0.68004 | 23357 ft | 403 kts | 30° |
| 2026-05-06 09:01 | 51.71036 | 0.70358 | 23898 ft | 407 kts | 30° |
| 2026-05-06 09:01 | 51.73470 | 0.72739 | 24415 ft | 410 kts | 30° |
| 2026-05-06 09:01 | 51.75915 | 0.75136 | 24942 ft | 413 kts | 30° |
| 2026-05-06 09:01 | 51.78362 | 0.77541 | 25457 ft | 416 kts | 31° |
| 2026-05-06 09:02 | 51.80841 | 0.79989 | 25954 ft | 419 kts | 31° |
| 2026-05-06 09:02 | 51.83274 | 0.82606 | 26454 ft | 422 kts | 38° |
| 2026-05-06 09:02 | 51.85430 | 0.85862 | 26935 ft | 426 kts | 48° |
| 2026-05-06 09:02 | 51.87123 | 0.89494 | 27390 ft | 429 kts | 58° |
| 2026-05-06 09:03 | 51.88502 | 0.93789 | 27872 ft | 431 kts | 68° |
| 2026-05-06 09:03 | 51.89623 | 0.98153 | 28340 ft | 434 kts | 68° |
| 2026-05-06 09:03 | 51.90785 | 1.02673 | 28819 ft | 437 kts | 68° |
| 2026-05-06 09:03 | 51.91880 | 1.06921 | 29257 ft | 439 kts | 68° |
| 2026-05-06 09:04 | 51.93054 | 1.11510 | 29707 ft | 442 kts | 68° |
| 2026-05-06 09:04 | 51.94231 | 1.16134 | 30157 ft | 445 kts | 68° |
| 2026-05-06 09:04 | 51.95413 | 1.20784 | 30544 ft | 448 kts | 68° |
| 2026-05-06 09:04 | 51.96576 | 1.25365 | 30925 ft | 450 kts | 68° |
| 2026-05-06 09:05 | 51.97768 | 1.30065 | 31296 ft | 452 kts | 68° |
| 2026-05-06 09:05 | 51.98964 | 1.34792 | 31670 ft | 454 kts | 68° |
| 2026-05-06 09:05 | 52.00145 | 1.39471 | 32185 ft | 452 kts | 68° |
| 2026-05-06 09:05 | 52.01334 | 1.44175 | 32731 ft | 450 kts | 68° |
| 2026-05-06 09:06 | 52.02515 | 1.48880 | 33269 ft | 448 kts | 68° |
| 2026-05-06 09:06 | 52.03685 | 1.53554 | 33806 ft | 447 kts | 68° |
| 2026-05-06 09:06 | 52.04852 | 1.58222 | 34280 ft | 445 kts | 68° |
| 2026-05-06 09:06 | 52.06009 | 1.62879 | 34669 ft | 445 kts | 69° |
| 2026-05-06 09:07 | 52.07166 | 1.67555 | 35016 ft | 446 kts | 69° |
| 2026-05-06 09:07 | 52.08327 | 1.72239 | 35351 ft | 446 kts | 69° |
| 2026-05-06 09:07 | 52.09489 | 1.76922 | 35679 ft | 447 kts | 69° |
| 2026-05-06 09:07 | 52.10638 | 1.81548 | 35993 ft | 447 kts | 69° |
| 2026-05-06 09:08 | 52.11803 | 1.86246 | 36297 ft | 448 kts | 69° |
| 2026-05-06 09:08 | 52.12951 | 1.90892 | 36602 ft | 448 kts | 69° |
| 2026-05-06 09:08 | 52.14108 | 1.95599 | 36878 ft | 449 kts | 69° |
| 2026-05-06 09:09 | 52.16408 | 2.05009 | 36959 ft | 444 kts | 69° |
| 2026-05-06 09:09 | 52.18684 | 2.14352 | 36965 ft | 443 kts | 69° |
| 2026-05-06 09:10 | 52.20958 | 2.23697 | 36958 ft | 443 kts | 69° |
| 2026-05-06 09:10 | 52.23201 | 2.32981 | 36954 ft | 443 kts | 69° |
| 2026-05-06 09:11 | 52.25418 | 2.42199 | 36963 ft | 443 kts | 69° |
| 2026-05-06 09:11 | 52.27668 | 2.51570 | 36954 ft | 443 kts | 69° |
| 2026-05-06 09:12 | 52.29904 | 2.60941 | 36956 ft | 443 kts | 69° |
| 2026-05-06 09:12 | 52.31808 | 2.70504 | 36940 ft | 442 kts | 75° |
| 2026-05-06 09:13 | 52.33460 | 2.79876 | 36951 ft | 442 kts | 75° |
| 2026-05-06 09:13 | 52.35162 | 2.89555 | 36932 ft | 442 kts | 75° |
| 2026-05-06 09:14 | 52.36842 | 2.99172 | 36938 ft | 443 kts | 75° |
| 2026-05-06 09:14 | 52.38518 | 3.08865 | 36926 ft | 443 kts | 75° |
| 2026-05-06 09:15 | 52.40182 | 3.18535 | 36932 ft | 444 kts | 75° |
| 2026-05-06 09:15 | 52.41865 | 3.28260 | 36917 ft | 444 kts | 75° |
| 2026-05-06 09:16 | 52.43539 | 3.38003 | 36918 ft | 444 kts | 75° |
| 2026-05-06 09:16 | 52.45167 | 3.47548 | 36915 ft | 444 kts | 75° |
| 2026-05-06 09:17 | 52.46785 | 3.57103 | 36921 ft | 445 kts | 76° |
| 2026-05-06 09:17 | 52.48431 | 3.66886 | 36923 ft | 445 kts | 76° |
| 2026-05-06 09:18 | 52.50071 | 3.76679 | 36924 ft | 445 kts | 76° |
| 2026-05-06 09:18 | 52.51703 | 3.86476 | 36928 ft | 445 kts | 76° |
| 2026-05-06 09:19 | 52.53335 | 3.96271 | 36924 ft | 445 kts | 76° |
| 2026-05-06 09:19 | 52.54950 | 4.06068 | 36925 ft | 444 kts | 76° |
| 2026-05-06 09:20 | 52.56493 | 4.15497 | 36925 ft | 444 kts | 76° |
| 2026-05-06 09:20 | 52.58093 | 4.25311 | 36922 ft | 444 kts | 76° |
| 2026-05-06 09:21 | 52.59681 | 4.35117 | 36915 ft | 444 kts | 76° |
| 2026-05-06 09:21 | 52.61261 | 4.44931 | 36913 ft | 443 kts | 77° |
| 2026-05-06 09:22 | 52.62803 | 4.54551 | 36907 ft | 443 kts | 77° |
| 2026-05-06 09:22 | 52.64351 | 4.64289 | 36905 ft | 443 kts | 77° |
| 2026-05-06 09:23 | 52.65904 | 4.74099 | 36902 ft | 443 kts | 77° |
| 2026-05-06 09:23 | 52.67448 | 4.83917 | 36904 ft | 443 kts | 77° |
| 2026-05-06 09:24 | 52.68980 | 4.93700 | 36907 ft | 443 kts | 77° |
| 2026-05-06 09:24 | 52.70501 | 5.03529 | 36907 ft | 443 kts | 77° |
| 2026-05-06 09:25 | 52.71983 | 5.13141 | 36896 ft | 443 kts | 77° |
| 2026-05-06 09:25 | 52.73489 | 5.22924 | 36886 ft | 442 kts | 77° |
| 2026-05-06 09:26 | 52.74986 | 5.32723 | 36876 ft | 442 kts | 77° |
| 2026-05-06 09:26 | 52.76480 | 5.42570 | 36872 ft | 442 kts | 77° |
| 2026-05-06 09:27 | 52.77967 | 5.52412 | 36867 ft | 442 kts | 78° |
| 2026-05-06 09:27 | 52.79436 | 5.62261 | 36858 ft | 442 kts | 78° |
| 2026-05-06 09:28 | 52.80900 | 5.72116 | 36857 ft | 442 kts | 78° |
| 2026-05-06 09:28 | 52.82368 | 5.81982 | 36861 ft | 442 kts | 78° |
| 2026-05-06 09:29 | 52.83798 | 5.91710 | 36861 ft | 442 kts | 78° |
| 2026-05-06 09:29 | 52.85232 | 6.01546 | 36864 ft | 442 kts | 78° |
| 2026-05-06 09:30 | 52.86632 | 6.11184 | 36862 ft | 442 kts | 78° |
| 2026-05-06 09:30 | 52.88062 | 6.21083 | 36862 ft | 442 kts | 78° |
| 2026-05-06 09:31 | 52.89484 | 6.30987 | 36865 ft | 442 kts | 78° |
| 2026-05-06 09:31 | 52.90900 | 6.40892 | 36874 ft | 442 kts | 78° |
| 2026-05-06 09:32 | 52.92293 | 6.50802 | 36873 ft | 441 kts | 79° |
| 2026-05-06 09:32 | 52.93684 | 6.60709 | 36876 ft | 441 kts | 79° |
| 2026-05-06 09:33 | 52.95068 | 6.70525 | 36875 ft | 441 kts | 79° |
| 2026-05-06 09:33 | 52.96437 | 6.80376 | 36867 ft | 441 kts | 79° |
| 2026-05-06 09:34 | 52.97803 | 6.90281 | 36867 ft | 441 kts | 79° |
| 2026-05-06 09:34 | 52.99163 | 7.00209 | 36866 ft | 441 kts | 79° |
| 2026-05-06 09:35 | 53.00499 | 7.10044 | 36866 ft | 441 kts | 79° |
| 2026-05-06 09:35 | 53.01824 | 7.19898 | 36864 ft | 440 kts | 80° |
| 2026-05-06 09:36 | 53.03326 | 7.29757 | 36865 ft | 442 kts | 70° |
| 2026-05-06 09:36 | 53.04686 | 7.34355 | 36866 ft | 444 kts | 59° |
| 2026-05-06 09:36 | 53.06489 | 7.38534 | 36864 ft | 446 kts | 54° |
| 2026-05-06 09:36 | 53.08309 | 7.42729 | 36604 ft | 449 kts | 57° |
| 2026-05-06 09:37 | 53.10024 | 7.47013 | 36086 ft | 447 kts | 59° |
| 2026-05-06 09:37 | 53.11688 | 7.51373 | 35586 ft | 445 kts | 60° |
| 2026-05-06 09:37 | 53.13325 | 7.55734 | 35087 ft | 443 kts | 61° |
| 2026-05-06 09:37 | 53.14945 | 7.60017 | 34607 ft | 442 kts | 61° |
| 2026-05-06 09:38 | 53.16593 | 7.64297 | 34144 ft | 441 kts | 60° |
| 2026-05-06 09:38 | 53.18265 | 7.68570 | 33624 ft | 440 kts | 60° |
| 2026-05-06 09:38 | 53.19948 | 7.72831 | 33067 ft | 440 kts | 60° |
| 2026-05-06 09:38 | 53.21633 | 7.77087 | 32518 ft | 440 kts | 60° |
| 2026-05-06 09:39 | 53.23308 | 7.81332 | 31991 ft | 440 kts | 60° |
| 2026-05-06 09:39 | 53.24987 | 7.85609 | 31459 ft | 440 kts | 59° |
| 2026-05-06 09:39 | 53.26662 | 7.89887 | 30949 ft | 440 kts | 59° |
| 2026-05-06 09:39 | 53.28337 | 7.94181 | 30447 ft | 441 kts | 59° |
| 2026-05-06 09:40 | 53.30011 | 7.98480 | 29945 ft | 441 kts | 59° |
| 2026-05-06 09:40 | 53.31663 | 8.02731 | 29379 ft | 442 kts | 59° |
| 2026-05-06 09:40 | 53.35011 | 8.11382 | 28250 ft | 443 kts | 59° |
| 2026-05-06 09:41 | 53.36678 | 8.15705 | 27703 ft | 441 kts | 59° |
| 2026-05-06 09:41 | 53.38336 | 8.20009 | 27160 ft | 438 kts | 59° |
| 2026-05-06 09:41 | 53.39984 | 8.24291 | 26543 ft | 435 kts | 59° |
| 2026-05-06 09:41 | 53.41616 | 8.28541 | 25930 ft | 432 kts | 59° |
| 2026-05-06 09:42 | 53.43164 | 8.32574 | 25345 ft | 429 kts | 59° |
| 2026-05-06 09:42 | 53.44775 | 8.36772 | 24713 ft | 427 kts | 59° |
| 2026-05-06 09:42 | 53.46379 | 8.40952 | 24087 ft | 424 kts | 59° |
| 2026-05-06 09:42 | 53.47968 | 8.45107 | 23481 ft | 421 kts | 59° |
| 2026-05-06 09:43 | 53.49497 | 8.49121 | 22795 ft | 419 kts | 59° |
| 2026-05-06 09:43 | 53.51042 | 8.53189 | 22102 ft | 418 kts | 59° |
| 2026-05-06 09:43 | 53.52600 | 8.57295 | 21440 ft | 416 kts | 59° |
| 2026-05-06 09:43 | 53.54151 | 8.61380 | 20847 ft | 413 kts | 59° |
| 2026-05-06 09:44 | 53.55611 | 8.65231 | 20298 ft | 411 kts | 59° |
| 2026-05-06 09:44 | 53.57145 | 8.69287 | 19795 ft | 407 kts | 59° |
| 2026-05-06 09:44 | 53.58658 | 8.73298 | 19312 ft | 405 kts | 59° |
| 2026-05-06 09:44 | 53.60162 | 8.77294 | 18829 ft | 403 kts | 59° |
| 2026-05-06 09:45 | 53.61585 | 8.81073 | 18374 ft | 400 kts | 59° |
| 2026-05-06 09:45 | 53.63047 | 8.84961 | 17865 ft | 396 kts | 59° |
| 2026-05-06 09:45 | 53.64514 | 8.88869 | 17326 ft | 392 kts | 59° |
| 2026-05-06 09:45 | 53.65959 | 8.92731 | 16792 ft | 388 kts | 59° |
| 2026-05-06 09:46 | 53.67373 | 8.96514 | 16283 ft | 385 kts | 59° |
| 2026-05-06 09:46 | 53.68793 | 9.00315 | 15750 ft | 382 kts | 58° |
| 2026-05-06 09:46 | 53.70199 | 9.04091 | 15217 ft | 378 kts | 58° |
| 2026-05-06 09:46 | 53.71585 | 9.07836 | 14696 ft | 374 kts | 59° |
| 2026-05-06 09:47 | 53.72543 | 9.11848 | 14167 ft | 365 kts | 79° |
| 2026-05-06 09:47 | 53.72595 | 9.15972 | 13671 ft | 350 kts | 100° |
| 2026-05-06 09:47 | 53.71763 | 9.19721 | 13104 ft | 337 kts | 122° |
| 2026-05-06 09:47 | 53.70190 | 9.22520 | 12608 ft | 324 kts | 146° |
| 2026-05-06 09:48 | 53.68178 | 9.24045 | 12138 ft | 313 kts | 162° |
| 2026-05-06 09:48 | 53.66121 | 9.25071 | 11676 ft | 303 kts | 164° |
| 2026-05-06 09:48 | 53.64123 | 9.26032 | 11215 ft | 295 kts | 164° |
| 2026-05-06 09:48 | 53.62166 | 9.26965 | 10778 ft | 292 kts | 164° |
| 2026-05-06 09:49 | 53.60205 | 9.27894 | 10372 ft | 292 kts | 164° |
| 2026-05-06 09:49 | 53.58251 | 9.28814 | 10011 ft | 291 kts | 164° |
| 2026-05-06 09:49 | 53.56309 | 9.29724 | 9629 ft | 289 kts | 164° |
| 2026-05-06 09:49 | 53.54378 | 9.30618 | 9234 ft | 287 kts | 164° |
| 2026-05-06 09:50 | 53.52549 | 9.31442 | 8861 ft | 285 kts | 164° |
| 2026-05-06 09:50 | 53.50653 | 9.32357 | 8460 ft | 282 kts | 156° |
| 2026-05-06 09:50 | 53.48978 | 9.33989 | 8078 ft | 277 kts | 144° |
| 2026-05-06 09:50 | 53.47375 | 9.35763 | 7679 ft | 274 kts | 144° |
| 2026-05-06 09:51 | 53.45813 | 9.37482 | 7305 ft | 263 kts | 144° |
| 2026-05-06 09:51 | 53.44335 | 9.39166 | 6924 ft | 250 kts | 136° |
| 2026-05-06 09:51 | 53.43383 | 9.41496 | 6566 ft | 242 kts | 106° |
| 2026-05-06 09:51 | 53.43228 | 9.44259 | 6151 ft | 243 kts | 86° |
| 2026-05-06 09:52 | 53.43356 | 9.47057 | 5783 ft | 239 kts | 84° |
| 2026-05-06 09:52 | 53.43512 | 9.49810 | 5421 ft | 235 kts | 84° |
| 2026-05-06 09:52 | 53.43658 | 9.52538 | 5216 ft | 235 kts | 84° |
| 2026-05-06 09:52 | 53.43800 | 9.55250 | 5077 ft | 232 kts | 84° |
| 2026-05-06 09:53 | 53.43948 | 9.57909 | 4978 ft | 231 kts | 84° |
| 2026-05-06 09:53 | 53.44226 | 9.60545 | 4867 ft | 231 kts | 69° |
| 2026-05-06 09:53 | 53.45085 | 9.62812 | 4775 ft | 232 kts | 51° |
| 2026-05-06 09:53 | 53.46124 | 9.64867 | 4672 ft | 227 kts | 51° |
| 2026-05-06 09:54 | 53.47113 | 9.66826 | 4586 ft | 213 kts | 51° |
| 2026-05-06 09:54 | 53.48045 | 9.68686 | 4381 ft | 209 kts | 52° |
| 2026-05-06 09:54 | 53.48974 | 9.70544 | 4121 ft | 206 kts | 52° |
| 2026-05-06 09:54 | 53.49891 | 9.72379 | 3845 ft | 203 kts | 52° |
| 2026-05-06 09:55 | 53.50789 | 9.74177 | 3579 ft | 200 kts | 52° |
| 2026-05-06 09:55 | 53.51675 | 9.75950 | 3305 ft | 196 kts | 52° |
| 2026-05-06 09:55 | 53.52530 | 9.77663 | 3044 ft | 186 kts | 52° |
| 2026-05-06 09:55 | 53.53343 | 9.79293 | 2791 ft | 178 kts | 52° |
| 2026-05-06 09:56 | 53.53871 | 9.80353 | 2633 ft | 172 kts | 52° |
| 2026-05-06 09:56 | 53.54600 | 9.81816 | 2412 ft | 159 kts | 52° |
| 2026-05-06 09:56 | 53.55277 | 9.83175 | 2200 ft | 145 kts | 51° |
| 2026-05-06 09:56 | 53.55890 | 9.84408 | 2006 ft | 129 kts | 51° |
| 2026-05-06 09:57 | 53.56428 | 9.85491 | 1843 ft | 124 kts | 51° |
| 2026-05-06 09:57 | 53.56970 | 9.86581 | 1681 ft | 120 kts | 50° |
| 2026-05-06 09:57 | 53.57502 | 9.87652 | 1513 ft | 118 kts | 50° |
| 2026-05-06 09:57 | 53.58030 | 9.88717 | 1355 ft | 119 kts | 50° |
| 2026-05-06 09:58 | 53.58560 | 9.89784 | 1189 ft | 119 kts | 51° |
| 2026-05-06 09:58 | 53.59092 | 9.90856 | 989 ft | 119 kts | 51° |
| 2026-05-06 09:58 | 53.59623 | 9.91927 | 817 ft | 119 kts | 50° |
| 2026-05-06 09:58 | 53.60155 | 9.92999 | 647 ft | 118 kts | 49° |
| 2026-05-06 09:59 | 53.60674 | 9.94047 | 483 ft | 119 kts | 49° |
| 2026-05-06 09:59 | 53.61204 | 9.95117 | 329 ft | 120 kts | 50° |
| 2026-05-06 09:59 | 53.61730 | 9.96182 | 150 ft | 117 kts | 49° |
| 2026-05-06 09:59 | 53.62241 | 9.97215 | 42 ft | 106 kts | 49° |
| 2026-05-06 10:00 | 53.62626 | 9.97988 | 42 ft | 62 kts | 50° |
| 2026-05-06 10:00 | 53.62847 | 9.98435 | 44 ft | 44 kts | 50° |
| 2026-05-06 10:00 | 53.63030 | 9.98806 | 46 ft | 38 kts | 50° |
| 2026-05-06 10:00 | 53.63187 | 9.99126 | 47 ft | 33 kts | 50° |
| 2026-05-06 10:01 | 53.63289 | 9.99367 | 44 ft | 20 kts | 72° |
| 2026-05-06 10:01 | 53.63286 | 9.99557 | 48 ft | 13 kts | 98° |
| 2026-05-06 10:01 | 53.63268 | 9.99705 | 46 ft | 12 kts | 112° |
| 2026-05-06 10:01 | 53.63196 | 9.99784 | 49 ft | 13 kts | 153° |
| 2026-05-06 10:02 | 53.63111 | 9.99857 | 49 ft | 14 kts | 153° |
| 2026-05-06 10:02 | 53.63020 | 9.99936 | 49 ft | 15 kts | 153° |
| 2026-05-06 10:02 | 53.62951 | 10.00010 | 49 ft | 11 kts | 121° |
| 2026-05-06 10:02 | 53.62960 | 10.00131 | 49 ft | 10 kts | 104° |
| 2026-05-06 10:03 | 53.62937 | 10.00241 | 47 ft | 8 kts | 108° |
| 2026-05-06 10:03 | 53.62927 | 10.00291 | 49 ft | 2 kts | 109° |
| 2026-05-06 10:03 | 53.62926 | 10.00294 | 49 ft | 0 kts | 109° |
| 2026-05-06 10:04 | 53.62939 | 10.00296 | 49 ft | 0 kts | 122° |